createdAt,value
2017-08-08T00:02:06.611Z,59.74
2017-08-08T00:04:34.012Z,59.68
2017-08-08T00:07:01.510Z,59.80
2017-08-08T00:09:28.912Z,59.82
2017-08-08T00:11:56.315Z,59.84
2017-08-08T00:14:23.712Z,59.47
2017-08-08T00:16:51.135Z,59.64
2017-08-08T00:19:18.539Z,59.41
2017-08-08T00:21:45.944Z,60.14
2017-08-08T00:24:13.353Z,59.93
2017-08-08T00:26:40.752Z,60.52
2017-08-08T00:29:08.155Z,60.57
2017-08-08T00:31:35.556Z,61.03
2017-08-08T00:34:02.968Z,62.64
2017-08-08T00:36:30.368Z,61.69
2017-08-08T00:38:57.767Z,62.04
2017-08-08T00:41:25.181Z,62.29
2017-08-08T00:43:52.579Z,61.03
2017-08-08T00:46:20.141Z,62.87
2017-08-08T00:48:47.544Z,63.47
2017-08-08T00:51:15.503Z,64.05
2017-08-08T00:53:42.908Z,63.97
2017-08-08T00:56:10.309Z,62.38
2017-08-08T00:58:37.715Z,63.15
2017-08-08T01:01:05.111Z,64.17
2017-08-08T01:03:32.524Z,64.75
2017-08-08T01:05:59.928Z,64.42
2017-08-08T01:08:27.327Z,65.65
2017-08-08T01:10:54.740Z,66.04
2017-08-08T01:13:22.135Z,64.42
2017-08-08T01:15:49.548Z,64.51
2017-08-08T01:18:16.951Z,65.37
2017-08-08T01:20:44.367Z,65.83
2017-08-08T01:23:11.771Z,66.81
2017-08-08T01:25:39.172Z,67.84
2017-08-08T01:28:06.577Z,67.13
2017-08-08T01:30:34.253Z,67.63
2017-08-08T01:33:01.651Z,67.78
2017-08-08T01:35:29.047Z,67.98
2017-08-08T01:37:56.460Z,67.88
2017-08-08T01:40:23.859Z,68.08
2017-08-08T01:42:51.259Z,68.11
2017-08-08T01:45:18.667Z,68.01
2017-08-08T01:47:46.077Z,68.47
2017-08-08T01:50:13.472Z,68.94
2017-08-08T01:52:40.882Z,69.53
2017-08-08T01:55:08.327Z,68.98
2017-08-08T01:57:35.723Z,69.43
2017-08-08T02:00:03.119Z,69.59
2017-08-08T02:02:30.523Z,68.46
2017-08-08T02:04:57.919Z,68.01
2017-08-08T02:07:25.323Z,68.82
2017-08-08T02:09:52.723Z,69.18
2017-08-08T02:12:20.130Z,67.97
2017-08-08T02:14:47.524Z,67.10
2017-08-08T02:17:14.916Z,68.49
2017-08-08T02:19:42.316Z,69.30
2017-08-08T02:22:09.712Z,69.21
2017-08-08T02:24:37.115Z,69.56
2017-08-08T02:27:04.512Z,69.32
2017-08-08T02:29:31.922Z,69.39
2017-08-08T02:31:59.316Z,69.37
2017-08-08T02:34:26.725Z,69.17
2017-08-08T02:36:54.116Z,68.93
2017-08-08T02:39:21.507Z,68.94
2017-08-08T02:41:48.914Z,69.44
2017-08-08T02:44:16.315Z,69.33
2017-08-08T02:46:43.715Z,69.11
2017-08-08T02:49:11.115Z,68.70
2017-08-08T02:51:38.535Z,69.88
2017-08-08T02:54:05.952Z,70.49
2017-08-08T02:56:33.351Z,69.60
2017-08-08T02:59:00.743Z,69.63
2017-08-08T03:01:28.143Z,67.03
2017-08-08T03:03:55.535Z,67.08
2017-08-08T03:06:22.941Z,66.37
2017-08-08T03:08:50.335Z,64.48
2017-08-08T03:11:17.747Z,64.35
2017-08-08T03:13:45.139Z,63.70
2017-08-08T03:16:12.540Z,63.85
2017-08-08T03:18:39.939Z,63.46
2017-08-08T03:21:07.332Z,63.49
2017-08-08T03:23:34.734Z,62.55
2017-08-08T03:26:02.127Z,62.82
2017-08-08T03:28:29.554Z,62.23
2017-08-08T03:30:56.952Z,61.93
2017-08-08T03:33:24.363Z,61.33
2017-08-08T03:35:51.759Z,61.80
2017-08-08T03:38:19.155Z,61.40
2017-08-08T03:40:46.560Z,61.15
2017-08-08T03:43:13.952Z,61.35
2017-08-08T03:45:41.526Z,60.99
2017-08-08T03:48:08.920Z,61.81
2017-08-08T03:50:36.316Z,60.38
2017-08-08T03:53:03.771Z,61.22
2017-08-08T03:55:31.551Z,63.43
2017-08-08T03:57:58.960Z,63.56
2017-08-08T04:00:26.355Z,62.03
2017-08-08T04:02:53.766Z,62.11
2017-08-08T04:05:21.162Z,62.34
2017-08-08T04:07:48.568Z,64.06
2017-08-08T04:10:15.962Z,66.01
2017-08-08T04:12:43.363Z,65.59
2017-08-08T04:15:10.759Z,65.81
2017-08-08T04:17:38.160Z,66.57
2017-08-08T04:20:05.565Z,67.32
2017-08-08T04:22:32.951Z,67.75
2017-08-08T04:25:00.357Z,67.48
2017-08-08T04:27:27.747Z,67.09
2017-08-08T04:29:55.155Z,67.47
2017-08-08T04:32:22.875Z,68.09
2017-08-08T04:34:50.275Z,65.72
2017-08-08T04:37:17.735Z,66.39
2017-08-08T04:39:45.131Z,66.32
2017-08-08T04:42:12.531Z,66.28
2017-08-08T04:44:39.923Z,67.47
2017-08-08T04:47:07.331Z,67.88
2017-08-08T04:49:34.731Z,68.97
2017-08-08T04:52:02.155Z,68.87
2017-08-08T04:54:29.547Z,68.95
2017-08-08T04:56:56.944Z,68.98
2017-08-08T04:59:24.351Z,69.10
2017-08-08T05:01:51.755Z,69.41
2017-08-08T05:04:19.159Z,69.75
2017-08-08T05:06:46.556Z,69.70
2017-08-08T05:09:13.955Z,70.06
2017-08-08T05:11:41.362Z,70.41
2017-08-08T05:14:08.762Z,70.00
2017-08-08T05:16:36.159Z,70.10
2017-08-08T05:19:03.568Z,70.22
2017-08-08T05:21:30.961Z,68.92
2017-08-08T05:23:58.360Z,67.76
2017-08-08T05:26:25.755Z,65.91
2017-08-08T05:28:53.168Z,66.05
2017-08-08T05:31:20.558Z,65.04
2017-08-08T05:33:47.951Z,64.10
2017-08-08T05:36:15.352Z,64.39
2017-08-08T05:38:42.740Z,63.56
2017-08-08T05:41:10.140Z,62.84
2017-08-08T05:43:37.559Z,62.30
2017-08-08T05:46:04.947Z,61.49
2017-08-08T05:48:32.347Z,62.29
2017-08-08T05:50:59.744Z,61.41
2017-08-08T05:53:27.150Z,61.97
2017-08-08T05:55:54.544Z,60.08
2017-08-08T05:58:21.943Z,61.26
2017-08-08T06:00:49.339Z,59.97
2017-08-08T06:03:16.744Z,60.35
2017-08-08T06:05:44.139Z,58.59
2017-08-08T06:08:11.540Z,58.41
2017-08-08T06:10:38.939Z,57.77
2017-08-08T06:13:06.352Z,58.88
2017-08-08T06:15:33.743Z,57.73
2017-08-08T06:18:01.140Z,58.14
2017-08-08T06:20:28.534Z,58.56
2017-08-08T06:22:55.931Z,57.96
2017-08-08T06:25:23.327Z,57.89
2017-08-08T06:27:50.723Z,58.59
2017-08-08T06:30:18.116Z,56.58
2017-08-08T06:32:45.516Z,59.57
2017-08-08T06:35:12.907Z,60.98
2017-08-08T06:37:40.303Z,58.87
2017-08-08T06:40:07.703Z,58.94
2017-08-08T06:42:35.099Z,59.31
2017-08-08T06:45:02.510Z,60.67
2017-08-08T06:47:29.903Z,60.08
2017-08-08T06:49:57.342Z,62.44
2017-08-08T06:52:24.728Z,61.25
2017-08-08T06:54:52.135Z,62.17
2017-08-08T06:57:19.526Z,61.03
2017-08-08T06:59:46.927Z,59.64
2017-08-08T07:02:14.380Z,61.85
2017-08-08T07:04:41.768Z,63.51
2017-08-08T07:07:09.164Z,63.67
2017-08-08T07:12:03.267Z,62.94
2017-08-08T07:14:30.670Z,65.83
2017-08-08T07:16:58.067Z,65.00
2017-08-08T07:19:25.463Z,64.02
2017-08-08T07:21:52.865Z,65.09
2017-08-08T07:24:20.263Z,66.33
2017-08-08T07:26:47.667Z,66.92
2017-08-08T07:29:15.058Z,67.81
2017-08-08T07:31:42.481Z,67.55
2017-08-08T07:34:09.908Z,64.77
2017-08-08T07:36:37.291Z,65.25
2017-08-08T07:39:04.761Z,65.88
2017-08-08T07:41:32.178Z,65.62
2017-08-08T07:43:59.623Z,63.70
2017-08-08T07:46:27.015Z,63.39
2017-08-08T07:48:54.403Z,60.75
2017-08-08T07:51:21.806Z,62.54
2017-08-08T07:53:49.215Z,64.43
2017-08-08T07:56:16.615Z,65.89
2017-08-08T07:58:44.006Z,65.61
2017-08-08T08:01:11.410Z,66.02
2017-08-08T08:03:38.803Z,66.99
2017-08-08T08:06:06.215Z,66.27
2017-08-08T08:08:33.612Z,65.79
2017-08-08T08:11:01.025Z,66.23
2017-08-08T08:13:28.424Z,67.58
2017-08-08T08:15:55.820Z,66.74
2017-08-08T08:18:23.223Z,66.57
2017-08-08T08:20:50.619Z,67.92
2017-08-08T08:23:18.030Z,61.09
2017-08-08T08:25:45.436Z,64.23
2017-08-08T08:28:12.843Z,65.64
2017-08-08T08:30:40.236Z,64.93
2017-08-08T08:33:07.638Z,66.08
2017-08-08T08:35:35.042Z,67.77
2017-08-08T08:38:02.456Z,69.65
2017-08-08T08:40:29.859Z,69.51
2017-08-08T08:42:57.259Z,69.71
2017-08-08T08:45:24.663Z,69.98
2017-08-08T08:47:52.063Z,71.31
2017-08-08T08:50:19.464Z,71.43
2017-08-08T08:52:46.863Z,70.29
2017-08-08T08:55:14.268Z,70.28
2017-08-08T08:57:41.656Z,71.31
2017-08-08T09:00:09.069Z,71.98
2017-08-08T09:02:36.459Z,71.12
2017-08-08T09:05:03.867Z,71.35
2017-08-08T09:07:31.260Z,71.98
2017-08-08T09:09:58.659Z,70.71
2017-08-08T09:12:26.055Z,70.38
2017-08-08T09:14:53.463Z,64.37
2017-08-08T09:17:20.859Z,66.87
2017-08-08T09:19:48.255Z,65.03
2017-08-08T09:22:15.650Z,67.95
2017-08-08T09:24:43.059Z,67.23
2017-08-08T09:27:10.464Z,67.86
2017-08-08T09:29:37.864Z,66.25
2017-08-08T09:32:05.274Z,67.26
2017-08-08T09:34:32.687Z,63.26
2017-08-08T09:37:00.092Z,65.43
2017-08-08T09:39:27.490Z,64.37
2017-08-08T09:41:54.893Z,64.11
2017-08-08T09:44:22.300Z,64.44
2017-08-08T09:46:49.694Z,63.50
2017-08-08T09:49:17.095Z,62.31
2017-08-08T09:51:44.491Z,62.79
2017-08-08T09:54:11.896Z,63.56
2017-08-08T09:56:39.316Z,63.16
2017-08-08T09:59:06.735Z,62.83
2017-08-08T10:01:34.148Z,59.74
2017-08-08T10:04:01.542Z,61.20
2017-08-08T10:06:28.951Z,61.98
2017-08-08T10:08:56.339Z,62.70
2017-08-08T10:11:23.744Z,62.33
2017-08-08T10:13:51.139Z,61.91
2017-08-08T10:16:18.548Z,62.17
2017-08-08T10:18:45.947Z,63.87
2017-08-08T10:21:13.342Z,64.16
2017-08-08T10:23:40.747Z,62.88
2017-08-08T10:26:08.143Z,64.28
2017-08-08T10:28:35.555Z,65.08
2017-08-08T10:31:02.950Z,68.15
2017-08-08T10:33:30.363Z,68.07
2017-08-08T10:35:57.761Z,69.84
2017-08-08T10:38:25.155Z,69.91
2017-08-08T10:40:52.562Z,71.62
2017-08-08T10:43:19.963Z,71.49
2017-08-08T10:45:47.359Z,73.00
2017-08-08T10:48:14.758Z,73.40
2017-08-08T10:50:42.159Z,74.00
2017-08-08T10:53:09.553Z,74.89
2017-08-08T10:55:36.956Z,72.28
2017-08-08T10:58:04.355Z,74.34
2017-08-08T11:00:31.756Z,75.27
2017-08-08T11:02:59.159Z,74.65
2017-08-08T11:05:26.559Z,73.84
2017-08-08T11:07:54.213Z,75.52
2017-08-08T11:10:21.606Z,77.09
2017-08-08T11:12:49.024Z,76.76
2017-08-08T11:15:16.419Z,76.73
2017-08-08T11:17:43.814Z,77.31
2017-08-08T11:20:11.223Z,78.78
2017-08-08T11:22:38.623Z,76.55
2017-08-08T11:25:06.035Z,76.74
2017-08-08T11:27:33.436Z,77.19
2017-08-08T11:30:00.832Z,78.02
2017-08-08T11:32:28.233Z,75.91
2017-08-08T11:34:55.676Z,76.83
2017-08-08T11:37:23.075Z,76.96
2017-08-08T11:39:50.478Z,77.49
2017-08-08T11:42:17.887Z,78.18
2017-08-08T11:44:45.289Z,75.82
2017-08-08T11:47:12.680Z,74.88
2017-08-08T11:49:40.091Z,76.81
2017-08-08T11:52:07.494Z,76.12
2017-08-08T11:54:34.887Z,77.07
2017-08-08T11:57:02.290Z,76.45
2017-08-08T11:59:29.699Z,77.41
2017-08-08T12:01:57.084Z,77.22
2017-08-08T12:04:24.482Z,76.71
2017-08-08T12:06:51.875Z,76.96
2017-08-08T12:09:19.274Z,79.17
2017-08-08T12:11:46.671Z,79.61
2017-08-08T12:14:14.071Z,77.84
2017-08-08T12:16:41.472Z,79.52
2017-08-08T12:19:08.885Z,78.86
2017-08-08T12:21:37.103Z,78.07
2017-08-08T12:24:04.501Z,79.89
2017-08-08T12:26:31.907Z,80.01
2017-08-08T12:28:59.307Z,80.47
2017-08-08T12:31:26.720Z,79.99
2017-08-08T12:33:54.115Z,80.22
2017-08-08T12:36:21.515Z,79.35
2017-08-08T12:38:48.917Z,79.98
2017-08-08T12:41:16.320Z,79.76
2017-08-08T12:43:43.728Z,79.40
2017-08-08T12:46:11.123Z,78.06
2017-08-08T12:48:38.544Z,79.10
2017-08-08T12:51:05.967Z,79.34
2017-08-08T12:53:33.369Z,80.06
2017-08-08T12:56:00.763Z,80.07
2017-08-08T12:58:28.160Z,81.39
2017-08-08T13:00:55.558Z,81.81
2017-08-08T13:03:22.955Z,81.91
2017-08-08T13:05:50.373Z,81.33
2017-08-08T13:08:17.771Z,80.86
2017-08-08T13:10:45.164Z,80.72
2017-08-08T13:13:12.559Z,80.44
2017-08-08T13:15:39.955Z,81.21
2017-08-08T13:18:07.359Z,80.70
2017-08-08T13:20:34.751Z,81.51
2017-08-08T13:23:02.153Z,81.78
2017-08-08T13:25:29.548Z,81.28
2017-08-08T13:27:56.943Z,81.79
2017-08-08T13:30:24.344Z,81.62
2017-08-08T13:32:51.741Z,81.69
2017-08-08T13:35:19.135Z,81.03
2017-08-08T13:37:46.543Z,81.79
2017-08-08T13:40:13.935Z,82.94
2017-08-08T13:42:41.359Z,82.75
2017-08-08T13:45:08.752Z,82.62
2017-08-08T13:47:36.148Z,82.76
2017-08-08T13:50:03.551Z,83.29
2017-08-08T13:52:30.955Z,83.30
2017-08-08T13:54:58.355Z,82.99
2017-08-08T13:57:25.754Z,83.40
2017-08-08T13:59:53.159Z,83.86
2017-08-08T14:02:20.547Z,83.00
2017-08-08T14:04:47.944Z,80.49
2017-08-08T14:07:15.345Z,81.14
2017-08-08T14:09:42.748Z,79.13
2017-08-08T14:12:10.141Z,80.86
2017-08-08T14:14:37.539Z,80.32
2017-08-08T14:17:04.935Z,79.50
2017-08-08T14:19:32.328Z,77.45
2017-08-08T14:21:59.731Z,81.39
2017-08-08T14:24:27.133Z,80.56
2017-08-08T14:26:54.552Z,77.89
2017-08-08T14:29:21.948Z,78.29
2017-08-08T14:31:49.340Z,78.31
2017-08-08T14:34:16.743Z,78.88
2017-08-08T14:36:44.134Z,77.68
2017-08-08T14:39:11.535Z,77.71
2017-08-08T14:41:38.949Z,74.54
2017-08-08T14:44:06.615Z,77.50
2017-08-08T14:46:34.008Z,76.62
2017-08-08T14:49:01.413Z,75.87
2017-08-08T14:51:28.812Z,75.90
2017-08-08T14:53:56.201Z,76.19
2017-08-08T14:56:23.607Z,77.11
2017-08-08T14:58:51.004Z,76.54
2017-08-08T15:01:18.437Z,77.61
2017-08-08T15:03:45.827Z,77.58
2017-08-08T15:06:13.218Z,76.26
2017-08-08T15:08:40.628Z,75.48
2017-08-08T15:11:08.045Z,73.70
2017-08-08T15:13:35.439Z,75.01
2017-08-08T15:16:02.830Z,71.91
2017-08-08T15:18:30.252Z,73.92
2017-08-08T15:20:57.649Z,75.66
2017-08-08T15:23:25.064Z,74.26
2017-08-08T15:25:52.459Z,75.53
2017-08-08T15:28:19.863Z,74.64
2017-08-08T15:30:47.256Z,73.76
2017-08-08T15:33:14.659Z,75.43
2017-08-08T15:35:42.056Z,75.55
2017-08-08T15:38:09.464Z,74.31
2017-08-08T15:40:36.859Z,75.40
2017-08-08T15:43:04.255Z,74.42
2017-08-08T15:45:32.379Z,74.34
2017-08-08T15:47:59.783Z,74.11
2017-08-08T15:50:27.192Z,74.87
2017-08-08T15:52:54.611Z,73.58
2017-08-08T15:55:22.013Z,74.34
2017-08-08T15:57:49.402Z,74.31
2017-08-08T16:00:16.799Z,75.65
2017-08-08T16:02:44.200Z,76.20
2017-08-08T16:05:11.595Z,74.56
2017-08-08T16:07:39.003Z,73.32
2017-08-08T16:10:06.408Z,71.08
2017-08-08T16:12:33.824Z,70.73
2017-08-08T16:15:01.221Z,68.92
2017-08-08T16:17:28.626Z,68.84
2017-08-08T16:19:56.025Z,67.97
2017-08-08T16:22:23.416Z,69.49
2017-08-08T16:24:50.819Z,69.93
2017-08-08T16:27:18.216Z,67.37
2017-08-08T16:29:45.618Z,67.21
2017-08-08T16:32:13.019Z,67.74
2017-08-08T16:34:40.428Z,67.14
2017-08-08T16:37:07.818Z,67.61
2017-08-08T16:39:35.212Z,67.67
2017-08-08T16:42:02.621Z,67.30
2017-08-08T16:44:30.016Z,68.00
2017-08-08T16:46:57.422Z,70.00
2017-08-08T16:49:24.814Z,70.62
2017-08-08T16:51:52.214Z,71.04
2017-08-08T16:54:19.611Z,71.72
2017-08-08T16:56:47.012Z,72.23
2017-08-08T16:59:14.412Z,72.63
2017-08-08T17:01:41.817Z,71.77
2017-08-08T17:04:09.209Z,71.52
2017-08-08T17:06:36.610Z,71.51
2017-08-08T17:09:04.004Z,71.40
2017-08-08T17:11:31.420Z,71.81
2017-08-08T17:13:58.817Z,71.95
2017-08-08T17:16:26.220Z,72.19
2017-08-08T17:18:53.618Z,71.40
2017-08-08T17:21:21.027Z,71.03
2017-08-08T17:23:48.420Z,70.70
2017-08-08T17:26:15.826Z,70.13
2017-08-08T17:28:43.213Z,70.57
2017-08-08T17:31:10.615Z,69.92
2017-08-08T17:33:38.003Z,69.39
2017-08-08T17:36:05.406Z,67.84
2017-08-08T17:38:32.791Z,67.78
2017-08-08T17:41:00.200Z,67.07
2017-08-08T17:43:27.591Z,66.40
2017-08-08T17:45:54.983Z,66.58
2017-08-08T17:48:22.388Z,67.25
2017-08-08T17:50:49.787Z,67.42
2017-08-08T17:53:17.187Z,67.28
2017-08-08T17:55:44.579Z,66.78
2017-08-08T17:58:11.984Z,67.60
2017-08-08T18:00:39.374Z,68.46
2017-08-08T18:03:06.783Z,69.03
2017-08-08T18:05:34.170Z,69.79
2017-08-08T18:08:01.572Z,70.76
2017-08-08T18:10:28.975Z,70.97
2017-08-08T18:12:56.372Z,70.10
2017-08-08T18:15:23.767Z,69.02
2017-08-08T18:17:51.180Z,68.63
2017-08-08T18:20:18.568Z,68.08
2017-08-08T18:22:45.959Z,68.69
2017-08-08T18:25:13.371Z,69.28
2017-08-08T18:27:40.775Z,68.91
2017-08-08T18:30:08.176Z,68.91
2017-08-08T18:32:35.576Z,69.06
2017-08-08T18:35:02.984Z,69.28
2017-08-08T18:37:30.380Z,69.46
2017-08-08T18:39:57.779Z,69.94
2017-08-08T18:42:25.180Z,70.11
2017-08-08T18:44:52.573Z,69.94
2017-08-08T18:47:19.972Z,69.90
2017-08-08T18:49:47.368Z,70.01
2017-08-08T18:52:14.768Z,70.39
2017-08-08T18:54:42.159Z,70.51
2017-08-08T18:57:09.558Z,70.73
2017-08-08T18:59:36.951Z,70.74
2017-08-08T19:02:04.367Z,70.99
2017-08-08T19:04:31.772Z,70.79
2017-08-08T19:06:59.172Z,70.83
2017-08-08T19:09:26.563Z,70.76
2017-08-08T19:11:53.967Z,70.87
2017-08-08T19:14:21.380Z,71.03
2017-08-08T19:16:48.783Z,71.38
2017-08-08T19:19:16.182Z,71.28
2017-08-08T19:21:43.591Z,71.43
2017-08-08T19:24:11.013Z,71.60
2017-08-08T19:26:38.411Z,71.85
2017-08-08T19:29:05.803Z,72.84
2017-08-08T19:31:33.220Z,72.81
2017-08-08T19:34:00.620Z,73.37
2017-08-08T19:36:28.028Z,73.47
2017-08-08T19:38:55.422Z,73.93
2017-08-08T19:41:22.833Z,73.81
2017-08-08T19:43:50.239Z,73.98
2017-08-08T19:46:17.643Z,73.88
2017-08-08T19:48:45.039Z,73.58
2017-08-08T19:51:12.456Z,73.93
2017-08-08T19:53:39.847Z,73.78
2017-08-08T19:56:07.248Z,73.96
2017-08-08T19:58:34.685Z,74.27
2017-08-08T20:01:02.083Z,74.46
2017-08-08T20:03:29.503Z,74.41
2017-08-08T20:05:56.904Z,74.54
2017-08-08T20:08:24.310Z,74.86
2017-08-08T20:10:51.711Z,74.89
2017-08-08T20:13:19.107Z,75.08
2017-08-08T20:15:46.530Z,75.01
2017-08-08T20:18:13.923Z,75.07
2017-08-08T20:20:41.327Z,75.22
2017-08-08T20:23:08.738Z,76.08
2017-08-08T20:25:36.141Z,75.45
2017-08-08T20:28:03.570Z,75.66
2017-08-08T20:30:31.018Z,75.98
2017-08-08T20:32:58.477Z,76.05
2017-08-08T20:35:25.859Z,76.00
2017-08-08T20:37:53.316Z,75.95
2017-08-08T20:40:20.734Z,76.15
2017-08-08T20:42:48.175Z,76.17
2017-08-08T20:45:15.595Z,76.53
2017-08-08T20:47:43.000Z,76.60
2017-08-08T20:50:10.432Z,76.86
2017-08-08T20:52:37.839Z,77.07
2017-08-08T20:55:05.268Z,77.53
2017-08-08T20:57:32.701Z,77.78
2017-08-08T21:00:00.113Z,77.92
2017-08-08T21:02:27.548Z,78.07
2017-08-08T21:04:54.975Z,78.24
2017-08-08T21:07:22.395Z,78.60
2017-08-08T21:09:49.818Z,78.92
2017-08-08T21:12:17.223Z,79.13
2017-08-08T21:14:44.708Z,79.35
2017-08-08T21:17:12.110Z,79.27
2017-08-08T21:19:39.519Z,79.03
2017-08-08T21:22:06.911Z,78.97
2017-08-08T21:24:34.307Z,79.02
2017-08-08T21:27:01.712Z,79.22
2017-08-08T21:29:29.103Z,79.43
2017-08-08T21:31:56.536Z,79.73
2017-08-08T21:34:23.935Z,79.92
2017-08-08T21:36:51.335Z,80.09
2017-08-08T21:39:18.747Z,80.40
2017-08-08T21:41:46.144Z,80.53
2017-08-08T21:44:13.550Z,80.52
2017-08-08T21:46:40.954Z,80.75
2017-08-08T21:49:08.346Z,80.84
2017-08-08T21:51:35.760Z,80.97
2017-08-08T21:54:03.155Z,81.14
2017-08-08T21:56:30.571Z,81.37
2017-08-08T21:58:57.974Z,81.57
2017-08-08T22:01:25.371Z,81.87
2017-08-08T22:03:52.781Z,82.16
2017-08-08T22:06:20.180Z,82.62
2017-08-08T22:08:47.599Z,82.26
2017-08-08T22:11:14.997Z,81.83
2017-08-08T22:13:42.394Z,81.51
2017-08-08T22:16:09.802Z,81.30
2017-08-08T22:18:37.203Z,81.31
2017-08-08T22:21:04.620Z,81.72
2017-08-08T22:23:32.021Z,82.03
2017-08-08T22:25:59.415Z,81.17
2017-08-08T22:28:26.826Z,81.20
2017-08-08T22:30:54.220Z,81.36
2017-08-08T22:33:21.636Z,81.62
2017-08-08T22:35:49.050Z,81.78
2017-08-08T22:38:16.443Z,82.05
2017-08-08T22:40:43.854Z,81.29
2017-08-08T22:43:11.252Z,81.28
2017-08-08T22:45:38.646Z,80.52
2017-08-08T22:48:06.047Z,80.96
2017-08-08T22:50:33.448Z,81.29
2017-08-08T22:53:00.852Z,81.47
2017-08-08T22:55:28.262Z,81.60
2017-08-08T22:57:55.672Z,81.53
2017-08-08T23:00:23.074Z,80.61
2017-08-08T23:02:50.484Z,80.59
2017-08-08T23:05:17.884Z,81.09
2017-08-08T23:07:45.306Z,80.95
2017-08-08T23:10:12.698Z,81.10
2017-08-08T23:12:40.098Z,81.10
2017-08-08T23:15:07.505Z,80.85
2017-08-08T23:17:34.907Z,79.89
2017-08-08T23:20:02.327Z,81.29
2017-08-08T23:22:29.727Z,81.26
2017-08-08T23:24:57.139Z,81.20
2017-08-08T23:27:24.539Z,81.28
2017-08-08T23:29:51.939Z,81.43
2017-08-08T23:32:19.359Z,80.48
2017-08-08T23:34:46.754Z,79.83
2017-08-08T23:37:14.203Z,80.34
2017-08-08T23:39:41.602Z,80.78
2017-08-08T23:42:08.999Z,80.64
2017-08-08T23:44:36.411Z,80.82
2017-08-08T23:47:03.807Z,81.12
2017-08-08T23:49:31.211Z,80.25
2017-08-08T23:51:58.619Z,80.04
2017-08-08T23:54:26.020Z,80.10
2017-08-08T23:56:53.430Z,80.60
2017-08-08T23:59:20.835Z,80.93
